createdAt,value
2019-03-08T00:00:04.118Z,2.83
2019-03-08T00:02:30.770Z,2.77
2019-03-08T00:04:57.303Z,2.72
2019-03-08T00:07:23.818Z,2.70
2019-03-08T00:09:50.653Z,2.68
2019-03-08T00:12:17.300Z,2.64
2019-03-08T00:14:43.965Z,2.63
2019-03-08T00:17:10.597Z,2.62
2019-03-08T00:19:37.239Z,2.66
2019-03-08T00:22:06.162Z,2.68
2019-03-08T00:24:32.839Z,2.69
2019-03-08T00:26:59.765Z,2.70
2019-03-08T00:29:26.280Z,2.72
2019-03-08T00:31:52.905Z,2.75
2019-03-08T00:34:19.440Z,2.75
2019-03-08T00:36:46.063Z,2.76
2019-03-08T00:39:12.698Z,2.79
2019-03-08T00:41:39.318Z,2.82
2019-03-08T00:44:06.262Z,2.83
2019-03-08T00:46:32.886Z,2.86
2019-03-08T00:48:59.539Z,2.89
2019-03-08T00:51:26.075Z,2.91
2019-03-08T00:53:52.799Z,2.91
2019-03-08T00:56:19.329Z,2.92
2019-03-08T00:58:45.959Z,2.94
2019-03-08T01:01:12.590Z,2.91
2019-03-08T01:03:39.237Z,2.95
2019-03-08T01:06:05.869Z,2.93
2019-03-08T01:08:32.403Z,2.95
2019-03-08T01:10:58.934Z,2.93
2019-03-08T01:13:25.590Z,2.92
2019-03-08T01:15:52.262Z,2.93
2019-03-08T01:18:18.883Z,2.92
2019-03-08T01:20:45.825Z,2.92
2019-03-08T01:23:12.482Z,2.91
2019-03-08T01:25:39.121Z,2.92
2019-03-08T01:28:07.992Z,2.91
2019-03-08T01:30:35.214Z,2.93
2019-03-08T01:33:01.848Z,2.91
2019-03-08T01:35:28.471Z,2.92
2019-03-08T01:37:55.109Z,2.93
2019-03-08T01:40:21.928Z,2.92
2019-03-08T01:42:48.556Z,2.93
2019-03-08T01:45:15.320Z,2.95
2019-03-08T01:47:41.944Z,2.93
2019-03-08T01:50:08.784Z,2.96
2019-03-08T01:52:35.317Z,2.97
2019-03-08T01:55:02.285Z,2.99
2019-03-08T01:57:28.952Z,3.05
2019-03-08T01:59:55.571Z,3.13
2019-03-08T02:02:31.129Z,3.11
2019-03-08T02:04:57.897Z,3.12
2019-03-08T02:07:24.616Z,3.13
2019-03-08T02:09:51.658Z,3.12
2019-03-08T02:12:18.294Z,3.12
2019-03-08T02:14:44.948Z,3.14
2019-03-08T02:17:11.599Z,3.12
2019-03-08T02:19:38.220Z,3.06
2019-03-08T02:22:04.984Z,3.04
2019-03-08T02:24:31.519Z,3.06
2019-03-08T02:26:58.444Z,3.09
2019-03-08T02:29:24.955Z,3.05
2019-03-08T02:31:51.584Z,3.09
2019-03-08T02:34:18.311Z,3.06
2019-03-08T02:36:44.840Z,3.04
2019-03-08T02:39:11.497Z,3.05
2019-03-08T02:41:38.120Z,3.03
2019-03-08T02:44:05.254Z,2.97
2019-03-08T02:46:31.880Z,2.93
2019-03-08T02:48:58.515Z,2.91
2019-03-08T02:51:25.038Z,2.86
2019-03-08T02:53:51.731Z,2.86
2019-03-08T02:56:18.374Z,2.88
2019-03-08T02:58:44.896Z,2.90
2019-03-08T03:01:11.839Z,2.88
2019-03-08T03:03:38.458Z,2.81
2019-03-08T03:06:05.233Z,2.79
2019-03-08T03:08:31.887Z,2.77
2019-03-08T03:10:58.616Z,2.75
2019-03-08T03:13:25.233Z,2.67
2019-03-08T03:15:52.002Z,2.66
2019-03-08T03:18:18.825Z,2.65
2019-03-08T03:20:45.387Z,2.70
2019-03-08T03:23:11.914Z,2.84
2019-03-08T03:25:38.442Z,2.88
2019-03-08T03:28:04.966Z,2.98
2019-03-08T03:30:31.495Z,2.96
2019-03-08T03:32:58.361Z,3.05
2019-03-08T03:35:25.086Z,3.09
2019-03-08T03:37:51.899Z,3.09
2019-03-08T03:40:18.647Z,3.15
2019-03-08T03:42:45.424Z,3.47
2019-03-08T03:45:12.182Z,3.56
2019-03-08T03:47:38.816Z,3.92
2019-03-08T03:50:06.689Z,3.97
2019-03-08T03:52:33.218Z,4.08
2019-03-08T03:54:59.963Z,4.32
2019-03-08T03:57:26.498Z,4.42
2019-03-08T03:59:53.058Z,4.54
2019-03-08T04:02:19.717Z,4.61
2019-03-08T04:04:46.351Z,4.75
2019-03-08T04:07:12.992Z,4.76
2019-03-08T04:09:39.754Z,4.84
2019-03-08T04:12:06.444Z,4.81
2019-03-08T04:14:33.095Z,4.84
2019-03-08T04:16:59.699Z,4.92
2019-03-08T04:19:26.322Z,4.88
2019-03-08T04:21:52.977Z,4.98
2019-03-08T04:24:19.524Z,4.92
2019-03-08T04:26:46.148Z,4.91
2019-03-08T04:29:12.782Z,4.90
2019-03-08T04:31:39.418Z,4.90
2019-03-08T04:34:06.142Z,4.89
2019-03-08T04:36:32.671Z,4.82
2019-03-08T04:38:59.417Z,4.73
2019-03-08T04:41:26.134Z,4.80
2019-03-08T04:43:52.987Z,4.82
2019-03-08T04:46:20.047Z,4.82
2019-03-08T04:48:46.784Z,4.82
2019-03-08T04:51:13.517Z,4.78
2019-03-08T04:53:41.222Z,4.75
2019-03-08T04:56:08.189Z,4.79
2019-03-08T04:58:34.832Z,4.90
2019-03-08T05:01:01.526Z,4.88
2019-03-08T05:03:28.383Z,4.88
2019-03-08T05:05:55.023Z,4.83
2019-03-08T05:08:21.746Z,4.88
2019-03-08T05:10:48.278Z,4.88
2019-03-08T05:13:14.943Z,4.87
2019-03-08T05:15:41.577Z,4.92
2019-03-08T05:18:08.279Z,4.89
2019-03-08T05:20:34.892Z,4.93
2019-03-08T05:23:01.579Z,4.97
2019-03-08T05:25:28.342Z,4.95
2019-03-08T05:27:55.104Z,4.97
2019-03-08T05:30:21.832Z,4.94
2019-03-08T05:32:48.466Z,4.96
2019-03-08T05:35:15.122Z,4.91
2019-03-08T05:37:41.853Z,4.93
2019-03-08T05:40:09.003Z,4.97
2019-03-08T05:42:35.774Z,5.03
2019-03-08T05:45:02.485Z,5.12
2019-03-08T05:47:29.016Z,5.12
2019-03-08T05:49:55.544Z,5.15
2019-03-08T05:52:22.259Z,5.17
2019-03-08T05:54:48.904Z,5.20
2019-03-08T05:57:15.752Z,5.23
2019-03-08T05:59:42.380Z,5.29
2019-03-08T06:02:09.096Z,5.33
2019-03-08T06:04:35.645Z,5.36
2019-03-08T06:07:02.557Z,5.42
2019-03-08T06:09:29.212Z,5.47
2019-03-08T06:11:55.772Z,5.55
2019-03-08T06:14:22.314Z,5.63
2019-03-08T06:16:48.955Z,5.65
2019-03-08T06:19:15.480Z,5.72
2019-03-08T06:21:42.031Z,5.78
2019-03-08T06:24:08.801Z,5.84
2019-03-08T06:26:35.444Z,5.90
2019-03-08T06:29:01.991Z,5.95
2019-03-08T06:31:28.515Z,5.99
2019-03-08T06:33:55.192Z,6.00
2019-03-08T06:36:21.827Z,6.02
2019-03-08T06:38:48.362Z,6.07
2019-03-08T06:41:15.013Z,6.13
2019-03-08T06:43:41.566Z,6.20
2019-03-08T06:46:08.226Z,6.32
2019-03-08T06:48:34.965Z,6.42
2019-03-08T06:51:01.534Z,6.55
2019-03-08T06:53:28.472Z,6.60
2019-03-08T06:55:55.163Z,6.66
2019-03-08T06:58:31.607Z,6.72
2019-03-08T07:01:10.002Z,6.76
2019-03-08T07:03:36.564Z,6.80
2019-03-08T07:06:03.625Z,6.85
2019-03-08T07:08:30.196Z,6.89
2019-03-08T07:10:56.821Z,6.93
2019-03-08T07:13:23.552Z,6.96
2019-03-08T07:15:50.098Z,7.01
2019-03-08T07:18:16.749Z,7.12
2019-03-08T07:20:48.575Z,7.17
2019-03-08T07:23:27.671Z,7.27
2019-03-08T07:26:07.834Z,7.42
2019-03-08T07:28:44.531Z,7.51
2019-03-08T07:31:23.883Z,7.58
2019-03-08T07:34:11.117Z,7.69
2019-03-08T07:36:54.505Z,7.80
2019-03-08T07:39:52.799Z,7.89
2019-03-08T07:42:37.664Z,8.01
2019-03-08T07:45:17.880Z,8.11
2019-03-08T07:48:04.170Z,8.29
2019-03-08T07:50:57.115Z,8.55
2019-03-08T07:53:58.635Z,8.91
2019-03-08T07:56:33.176Z,9.10
2019-03-08T07:59:19.370Z,9.23
2019-03-08T08:02:11.678Z,9.27
2019-03-08T08:04:47.655Z,9.27
2019-03-08T08:07:20.861Z,9.27
2019-03-08T08:10:05.645Z,9.17
2019-03-08T08:12:51.828Z,9.28
2019-03-08T08:15:40.818Z,9.31
2019-03-08T08:18:30.157Z,9.43
2019-03-08T08:21:10.116Z,9.41
2019-03-08T08:24:11.685Z,9.61
2019-03-08T08:27:00.746Z,9.65
2019-03-08T08:29:47.476Z,9.90
2019-03-08T08:32:36.454Z,10.44
2019-03-08T08:35:11.129Z,10.53
2019-03-08T08:37:51.289Z,10.48
2019-03-08T08:40:42.718Z,10.87
2019-03-08T08:43:15.289Z,11.71
2019-03-08T08:45:50.833Z,12.44
2019-03-08T08:48:26.994Z,12.33
2019-03-08T08:51:03.724Z,12.32
2019-03-08T08:53:36.453Z,12.43
2019-03-08T08:56:21.551Z,13.22
2019-03-08T08:59:16.604Z,13.84
2019-03-08T09:02:01.895Z,16.11
2019-03-08T09:04:46.681Z,17.55
2019-03-08T09:07:45.440Z,19.76
2019-03-08T09:10:24.964Z,20.61
2019-03-08T09:12:59.989Z,22.04
2019-03-08T09:15:44.337Z,22.63
2019-03-08T09:18:29.862Z,22.31
2019-03-08T09:21:22.542Z,20.81
2019-03-08T09:23:58.998Z,18.92
2019-03-08T09:26:48.141Z,16.69
2019-03-08T09:29:24.839Z,15.44
2019-03-08T09:32:06.022Z,14.66
2019-03-08T09:35:01.868Z,13.82
2019-03-08T09:37:44.231Z,13.42
2019-03-08T09:40:33.307Z,12.96
2019-03-08T09:43:18.857Z,12.43
2019-03-08T09:46:13.849Z,12.23
2019-03-08T09:49:02.556Z,12.29
2019-03-08T09:51:47.763Z,12.10
2019-03-08T09:54:46.275Z,11.88
2019-03-08T09:57:31.720Z,11.60
2019-03-08T10:00:07.359Z,11.37
2019-03-08T10:02:45.996Z,11.26
2019-03-08T10:05:35.337Z,11.39
2019-03-08T10:08:24.583Z,11.23
2019-03-08T10:11:09.169Z,11.53
2019-03-08T10:13:44.783Z,11.84
2019-03-08T10:16:16.569Z,12.09
2019-03-08T10:19:15.310Z,12.76
2019-03-08T10:22:08.173Z,12.78
2019-03-08T10:24:57.371Z,12.18
2019-03-08T10:27:49.752Z,13.13
2019-03-08T10:30:33.899Z,13.59
2019-03-08T10:33:32.796Z,13.96
2019-03-08T10:36:17.480Z,15.27
2019-03-08T10:39:02.536Z,15.31
2019-03-08T10:42:01.455Z,15.49
2019-03-08T10:44:34.942Z,15.27
2019-03-08T10:47:38.195Z,15.10
2019-03-08T10:50:25.537Z,14.70
2019-03-08T10:53:22.906Z,14.00
2019-03-08T10:56:06.316Z,13.61
2019-03-08T10:59:01.381Z,13.63
2019-03-08T11:01:35.262Z,13.42
2019-03-08T11:04:18.185Z,13.14
2019-03-08T11:07:04.007Z,12.60
2019-03-08T11:10:13.753Z,12.40
2019-03-08T11:13:13.462Z,12.82
2019-03-08T11:15:52.017Z,14.46
2019-03-08T11:18:29.017Z,16.22
2019-03-08T11:21:31.307Z,17.94
2019-03-08T11:24:26.800Z,19.08
2019-03-08T11:27:24.820Z,20.87
2019-03-08T11:30:02.759Z,23.24
2019-03-08T11:32:59.467Z,23.33
2019-03-08T11:35:32.514Z,23.09
2019-03-08T11:38:19.887Z,23.59
2019-03-08T11:40:58.143Z,22.40
2019-03-08T11:43:34.224Z,20.61
2019-03-08T11:46:16.704Z,18.99
2019-03-08T11:49:08.546Z,18.66
2019-03-08T11:52:07.918Z,18.45
2019-03-08T11:54:53.419Z,19.76
2019-03-08T11:57:40.205Z,19.56
2019-03-08T12:00:28.893Z,18.59
2019-03-08T12:03:16.243Z,18.17
2019-03-08T12:06:01.483Z,18.21
2019-03-08T12:08:51.832Z,19.22
2019-03-08T12:11:27.981Z,18.95
2019-03-08T12:14:12.257Z,18.24
2019-03-08T12:17:04.900Z,17.25
2019-03-08T12:19:39.928Z,16.38
2019-03-08T12:22:15.907Z,15.44
2019-03-08T12:24:51.965Z,14.75
2019-03-08T12:27:26.509Z,14.57
2019-03-08T12:30:13.081Z,14.34
2019-03-08T12:32:51.337Z,14.53
2019-03-08T12:35:35.984Z,14.70
2019-03-08T12:38:44.832Z,14.88
2019-03-08T12:41:28.750Z,15.16
2019-03-08T12:44:18.896Z,15.46
2019-03-08T12:47:07.749Z,15.29
2019-03-08T12:50:04.533Z,15.16
2019-03-08T12:52:53.874Z,15.25
2019-03-08T12:55:36.493Z,15.41
2019-03-08T12:58:21.872Z,15.29
2019-03-08T13:01:13.139Z,15.00
2019-03-08T13:04:03.751Z,14.42
2019-03-08T13:06:39.867Z,14.04
2019-03-08T13:09:29.115Z,14.08
2019-03-08T13:12:01.572Z,14.00
2019-03-08T13:14:28.299Z,13.95
2019-03-08T13:16:55.192Z,13.92
2019-03-08T13:19:21.977Z,13.89
2019-03-08T13:21:49.054Z,13.97
2019-03-08T13:24:16.008Z,13.97
2019-03-08T13:26:42.789Z,14.01
2019-03-08T13:29:09.594Z,13.78
2019-03-08T13:31:42.180Z,13.43
2019-03-08T13:34:09.129Z,13.57
2019-03-08T13:36:44.451Z,13.51
2019-03-08T13:39:11.922Z,13.34
2019-03-08T13:41:38.597Z,13.45
2019-03-08T13:44:09.170Z,13.39
2019-03-08T13:46:37.608Z,13.38
2019-03-08T13:49:07.225Z,13.20
2019-03-08T13:51:34.147Z,13.04
2019-03-08T13:54:01.072Z,12.78
2019-03-08T13:56:27.606Z,12.87
2019-03-08T13:58:54.256Z,13.01
2019-03-08T14:01:22.466Z,13.19
2019-03-08T14:03:49.116Z,13.51
2019-03-08T14:06:15.873Z,13.69
2019-03-08T14:08:42.703Z,13.87
2019-03-08T14:11:09.468Z,13.82
2019-03-08T14:13:36.101Z,13.50
2019-03-08T14:16:02.743Z,13.55
2019-03-08T14:18:29.468Z,13.45
2019-03-08T14:20:56.113Z,13.31
2019-03-08T14:23:22.753Z,13.21
2019-03-08T14:25:49.777Z,13.01
2019-03-08T14:28:16.417Z,12.88
2019-03-08T14:31:02.746Z,12.31
2019-03-08T14:33:29.294Z,11.56
2019-03-08T14:35:55.931Z,11.39
2019-03-08T14:38:22.959Z,11.56
2019-03-08T14:40:57.517Z,12.02
2019-03-08T14:43:28.418Z,12.26
2019-03-08T14:46:00.030Z,12.64
2019-03-08T14:48:26.577Z,12.91
2019-03-08T14:50:53.108Z,13.19
2019-03-08T14:53:19.725Z,13.31
2019-03-08T14:55:46.287Z,13.57
2019-03-08T14:58:14.917Z,13.66
2019-03-08T15:00:41.547Z,13.90
2019-03-08T15:03:10.783Z,14.11
2019-03-08T15:05:37.641Z,14.30
2019-03-08T15:08:04.355Z,14.54
2019-03-08T15:10:39.124Z,14.82
2019-03-08T15:12:59.688Z,14.57
2019-03-08T15:15:26.323Z,14.40
2019-03-08T15:17:53.657Z,13.87
2019-03-08T15:20:21.612Z,13.52
2019-03-08T15:22:48.747Z,13.13
2019-03-08T15:25:15.566Z,12.75
2019-03-08T15:27:42.308Z,12.40
2019-03-08T15:30:11.292Z,12.20
2019-03-08T15:32:37.929Z,12.05
2019-03-08T15:35:05.740Z,11.98
2019-03-08T15:37:32.642Z,11.88
2019-03-08T15:39:59.162Z,11.76
2019-03-08T15:42:36.276Z,11.62
2019-03-08T15:45:05.840Z,11.55
2019-03-08T15:47:32.689Z,11.54
2019-03-08T15:50:04.560Z,11.51
2019-03-08T15:52:29.715Z,11.50
2019-03-08T15:54:56.261Z,11.49
2019-03-08T15:57:22.918Z,11.56
2019-03-08T15:59:49.463Z,11.56
2019-03-08T16:02:16.224Z,11.49
2019-03-08T16:04:45.799Z,11.43
2019-03-08T16:07:11.707Z,11.37
2019-03-08T16:09:38.391Z,11.32
2019-03-08T16:12:05.017Z,11.20
2019-03-08T16:14:31.731Z,11.03
2019-03-08T16:16:58.378Z,10.89
2019-03-08T16:19:26.183Z,10.62
2019-03-08T16:21:52.952Z,10.37
2019-03-08T16:24:19.682Z,10.19
2019-03-08T16:26:46.323Z,9.98
2019-03-08T16:29:12.982Z,9.80
2019-03-08T16:31:45.750Z,9.64
2019-03-08T16:34:12.890Z,9.46
2019-03-08T16:36:47.272Z,9.35
2019-03-08T16:39:19.436Z,9.28
2019-03-08T16:42:04.546Z,9.15
2019-03-08T16:45:05.903Z,9.05
2019-03-08T16:47:50.797Z,8.86
2019-03-08T16:50:31.336Z,8.77
2019-03-08T16:53:05.224Z,8.61
2019-03-08T16:55:39.435Z,8.43
2019-03-08T16:58:31.678Z,8.35
2019-03-08T17:01:20.662Z,8.30
2019-03-08T17:03:56.187Z,8.24
2019-03-08T17:06:54.491Z,8.23
2019-03-08T17:09:30.682Z,8.08
2019-03-08T17:12:05.149Z,8.00
2019-03-08T17:14:43.904Z,7.92
2019-03-08T17:17:21.530Z,7.92
2019-03-08T17:19:56.837Z,7.89
2019-03-08T17:22:43.139Z,7.87
2019-03-08T17:25:19.031Z,7.84
2019-03-08T17:28:09.977Z,7.81
2019-03-08T17:30:54.870Z,7.79
2019-03-08T17:33:33.100Z,7.82
2019-03-08T17:36:20.951Z,7.80
2019-03-08T17:38:52.539Z,7.75
2019-03-08T17:41:28.328Z,7.67
2019-03-08T17:44:17.339Z,7.60
2019-03-08T17:47:07.461Z,7.49
2019-03-08T17:50:05.592Z,7.36
2019-03-08T17:53:07.122Z,7.20
2019-03-08T17:55:51.556Z,7.07
2019-03-08T17:58:34.222Z,6.93
2019-03-08T18:01:23.347Z,6.77
2019-03-08T18:04:21.906Z,6.74
2019-03-08T18:07:14.004Z,6.67
2019-03-08T18:10:06.035Z,6.63
2019-03-08T18:13:07.841Z,6.55
2019-03-08T18:15:49.858Z,6.46
2019-03-08T18:18:35.208Z,6.38
2019-03-08T18:21:18.758Z,6.38
2019-03-08T18:24:01.542Z,6.36
2019-03-08T18:26:57.202Z,6.33
2019-03-08T18:29:34.966Z,6.31
2019-03-08T18:32:26.988Z,6.28
2019-03-08T18:35:20.688Z,6.27
2019-03-08T18:38:15.874Z,6.23
2019-03-08T18:41:02.068Z,6.17
2019-03-08T18:43:45.554Z,6.11
2019-03-08T18:46:43.315Z,6.01
2019-03-08T18:49:41.765Z,6.01
2019-03-08T18:52:43.424Z,6.01
2019-03-08T18:55:47.968Z,5.95
2019-03-08T18:58:30.283Z,5.89
2019-03-08T19:01:15.169Z,5.75
2019-03-08T19:04:00.672Z,5.76
2019-03-08T19:06:35.285Z,5.69
2019-03-08T19:09:36.843Z,5.64
2019-03-08T19:12:15.199Z,5.58
2019-03-08T19:14:50.788Z,5.50
2019-03-08T19:17:27.023Z,5.45
2019-03-08T19:20:28.355Z,5.42
2019-03-08T19:23:05.740Z,5.41
2019-03-08T19:25:40.190Z,5.35
2019-03-08T19:28:25.216Z,5.31
2019-03-08T19:31:15.726Z,5.28
2019-03-08T19:34:01.120Z,5.22
2019-03-08T19:36:45.409Z,5.17
2019-03-08T19:39:18.696Z,5.08
2019-03-08T19:42:00.261Z,5.11
2019-03-08T19:44:52.305Z,5.11
2019-03-08T19:47:50.806Z,5.22
2019-03-08T19:50:27.670Z,5.07
2019-03-08T19:53:10.370Z,5.19
2019-03-08T19:55:58.535Z,5.17
2019-03-08T19:58:32.241Z,5.20
2019-03-08T20:01:18.826Z,5.16
2019-03-08T20:04:01.334Z,5.06
2019-03-08T20:06:46.387Z,5.04
2019-03-08T20:09:32.868Z,4.98
2019-03-08T20:12:31.298Z,4.97
2019-03-08T20:15:23.679Z,5.09
2019-03-08T20:17:55.521Z,5.18
2019-03-08T20:20:32.021Z,5.20
2019-03-08T20:23:14.187Z,5.24
2019-03-08T20:26:05.118Z,5.22
2019-03-08T20:28:58.720Z,5.25
2019-03-08T20:31:43.798Z,5.25
2019-03-08T20:34:30.147Z,5.27
2019-03-08T20:37:05.932Z,5.32
2019-03-08T20:39:54.465Z,5.27
2019-03-08T20:42:39.695Z,5.18
2019-03-08T20:45:26.696Z,5.11
2019-03-08T20:47:53.425Z,5.07
2019-03-08T20:50:20.252Z,5.00
2019-03-08T20:52:47.028Z,4.96
2019-03-08T20:55:13.838Z,4.91
2019-03-08T20:57:40.593Z,4.81
2019-03-08T21:00:08.505Z,4.72
2019-03-08T21:02:35.082Z,4.73
2019-03-08T21:05:01.796Z,4.67
2019-03-08T21:07:34.503Z,4.63
2019-03-08T21:10:08.764Z,4.55
2019-03-08T21:12:37.462Z,4.50
2019-03-08T21:15:06.110Z,4.47
2019-03-08T21:17:33.187Z,4.61
2019-03-08T21:20:00.025Z,4.58
2019-03-08T21:22:27.541Z,4.62
2019-03-08T21:24:54.675Z,4.71
2019-03-08T21:27:21.807Z,4.83
2019-03-08T21:29:48.819Z,4.93
2019-03-08T21:32:16.059Z,5.04
2019-03-08T21:34:43.943Z,5.06
2019-03-08T21:37:11.371Z,5.13
2019-03-08T21:39:38.161Z,5.14
2019-03-08T21:42:04.953Z,5.13
2019-03-08T21:44:31.941Z,5.10
2019-03-08T21:46:58.712Z,5.02
2019-03-08T21:49:25.508Z,4.96
2019-03-08T21:51:54.602Z,4.96
2019-03-08T21:54:21.789Z,4.93
2019-03-08T21:56:49.548Z,4.97
2019-03-08T21:59:17.024Z,5.03
2019-03-08T22:01:43.785Z,5.04
2019-03-08T22:04:16.811Z,5.05
2019-03-08T22:06:44.085Z,5.05
2019-03-08T22:09:21.968Z,5.11
2019-03-08T22:11:48.960Z,5.17
2019-03-08T22:14:16.174Z,5.16
2019-03-08T22:16:43.096Z,5.16
2019-03-08T22:19:10.125Z,5.16
2019-03-08T22:21:37.100Z,5.26
2019-03-08T22:24:13.090Z,5.30
2019-03-08T22:26:33.406Z,5.31
2019-03-08T22:29:00.323Z,5.35
2019-03-08T22:31:27.253Z,5.37
2019-03-08T22:33:54.987Z,5.43
2019-03-08T22:36:22.316Z,5.41
2019-03-08T22:38:49.846Z,5.44
2019-03-08T22:41:17.484Z,5.44
2019-03-08T22:43:44.397Z,5.44
2019-03-08T22:46:11.446Z,5.44
2019-03-08T22:48:39.381Z,5.49
2019-03-08T22:51:08.025Z,5.51
2019-03-08T22:53:34.917Z,5.54
2019-03-08T22:56:01.982Z,5.59
2019-03-08T22:58:28.752Z,5.67
2019-03-08T23:01:13.070Z,5.68
2019-03-08T23:03:39.838Z,5.68
2019-03-08T23:06:06.474Z,5.69
2019-03-08T23:08:33.103Z,5.73
2019-03-08T23:10:59.843Z,5.75
2019-03-08T23:13:26.461Z,5.80
2019-03-08T23:15:53.227Z,5.82
2019-03-08T23:18:19.895Z,5.82
2019-03-08T23:20:46.639Z,5.78
2019-03-08T23:23:13.271Z,5.76
2019-03-08T23:25:39.917Z,5.72
2019-03-08T23:28:19.449Z,5.65
2019-03-08T23:30:47.831Z,5.56
2019-03-08T23:33:14.451Z,5.46
2019-03-08T23:35:41.123Z,5.38
2019-03-08T23:38:07.659Z,5.31
2019-03-08T23:40:34.300Z,5.25
2019-03-08T23:43:00.925Z,5.18
2019-03-08T23:45:27.628Z,5.16
2019-03-08T23:47:54.265Z,5.09
2019-03-08T23:50:21.188Z,5.06
2019-03-08T23:52:47.704Z,5.02
2019-03-08T23:55:14.350Z,4.92
2019-03-08T23:57:40.897Z,4.85
